createdAt,value
2023-05-21T12:13:02.186Z,85.20
2023-05-21T12:15:29.400Z,78.80
2023-05-21T12:17:57.006Z,77.50
2023-05-21T12:20:28.126Z,76.30
2023-05-21T12:22:57.026Z,75.00
2023-05-21T12:25:24.164Z,74.10
2023-05-21T12:27:58.306Z,73.60
2023-05-21T12:30:26.416Z,74.30
2023-05-21T12:32:53.546Z,72.70
2023-05-21T12:35:22.872Z,72.60
2023-05-21T12:37:51.104Z,72.10
2023-05-21T12:40:18.498Z,72.20
2023-05-21T12:42:45.716Z,71.10
2023-05-21T12:45:13.485Z,71.00
2023-05-21T12:47:40.537Z,71.10
2023-05-21T12:50:12.336Z,71.30
2023-05-21T12:52:41.072Z,70.90
2023-05-21T12:55:10.478Z,70.80
2023-05-21T12:57:41.468Z,69.60
2023-05-21T13:00:10.337Z,69.20
2023-05-21T13:02:42.428Z,69.40
2023-05-21T13:05:17.354Z,69.20
2023-05-21T13:07:47.680Z,69.40
2023-05-21T13:10:16.837Z,69.50
2023-05-21T13:12:44.953Z,69.80
2023-05-21T13:15:12.477Z,69.70
2023-05-21T13:17:39.520Z,69.60
2023-05-21T13:20:12.549Z,69.40
2023-05-21T13:22:46.734Z,69.00
2023-05-21T13:25:21.007Z,69.50
2023-05-21T13:27:50.185Z,69.00
2023-05-21T13:30:18.440Z,68.70
2023-05-21T13:32:46.194Z,68.40
2023-05-21T13:35:15.139Z,68.20
2023-05-21T13:37:42.322Z,68.10
2023-05-21T13:40:11.494Z,67.80
2023-05-21T13:42:39.155Z,68.50
2023-05-21T13:45:11.886Z,67.50
2023-05-21T13:47:40.505Z,67.70
2023-05-21T13:50:09.728Z,67.50
2023-05-21T13:52:38.102Z,67.30
2023-05-21T13:55:06.501Z,67.30
2023-05-21T13:57:34.161Z,67.30
2023-05-21T14:00:01.670Z,68.20
2023-05-21T14:02:29.435Z,67.40
2023-05-21T14:04:56.619Z,67.40
2023-05-21T14:07:23.825Z,67.50
2023-05-21T14:09:51.135Z,67.30
2023-05-21T14:12:18.929Z,67.10
2023-05-21T14:14:46.058Z,66.90
2023-05-21T14:17:13.196Z,66.40
2023-05-21T14:19:40.378Z,65.90
2023-05-21T14:22:07.388Z,65.70
2023-05-21T14:24:34.399Z,65.70
2023-05-21T14:27:01.417Z,65.30
2023-05-21T14:29:28.496Z,65.30
2023-05-21T14:31:55.515Z,65.30
2023-05-21T14:34:22.630Z,65.10
2023-05-21T14:36:49.716Z,65.00
2023-05-21T14:39:17.192Z,65.00
2023-05-21T14:41:44.378Z,64.60
2023-05-21T14:44:11.398Z,64.30
2023-05-21T14:46:39.650Z,64.00
2023-05-21T14:49:06.768Z,64.00
2023-05-21T14:51:33.900Z,63.80
2023-05-21T14:54:00.902Z,63.60
2023-05-21T14:56:28.133Z,63.40
2023-05-21T14:58:56.276Z,63.50
2023-05-21T15:01:24.051Z,63.30
2023-05-21T15:03:51.638Z,63.10
2023-05-21T15:06:18.810Z,63.10
2023-05-21T15:08:45.863Z,63.00
2023-05-21T15:11:13.012Z,63.00
2023-05-21T15:13:40.262Z,62.90
2023-05-21T15:16:07.382Z,62.70
2023-05-21T15:18:34.505Z,62.70
2023-05-21T15:21:01.543Z,62.50
2023-05-21T15:23:28.637Z,63.40
2023-05-21T15:25:55.944Z,62.10
2023-05-21T15:28:23.067Z,62.10
2023-05-21T15:30:50.238Z,61.90
2023-05-21T15:33:17.520Z,61.80
2023-05-21T15:35:44.872Z,61.60
2023-05-21T15:38:12.215Z,61.40
2023-05-21T15:40:41.926Z,61.40
2023-05-21T15:43:09.134Z,61.00
2023-05-21T15:45:36.687Z,60.80
2023-05-21T15:48:04.610Z,60.80
2023-05-21T15:50:31.688Z,60.90
2023-05-21T15:52:58.684Z,61.00
2023-05-21T15:55:25.656Z,60.80
2023-05-21T15:57:52.676Z,60.90
2023-05-21T16:00:19.733Z,60.80
2023-05-21T16:02:46.834Z,60.80
2023-05-21T16:05:13.908Z,60.70
2023-05-21T16:07:40.900Z,60.70
2023-05-21T16:10:10.168Z,60.70
2023-05-21T16:12:37.741Z,60.60
2023-05-21T16:15:05.988Z,60.80
2023-05-21T16:17:33.000Z,60.60
2023-05-21T16:20:00.027Z,60.60
2023-05-21T16:22:27.109Z,60.60
2023-05-21T16:24:54.685Z,60.70
2023-05-21T16:27:21.809Z,60.70
2023-05-21T16:29:48.941Z,60.70
2023-05-21T16:32:16.416Z,60.60
2023-05-21T16:34:43.493Z,60.50
2023-05-21T16:37:11.207Z,60.50
2023-05-21T16:39:38.728Z,60.50
2023-05-21T16:42:05.873Z,60.30
2023-05-21T16:44:32.864Z,61.40
2023-05-21T16:47:01.352Z,60.40
2023-05-21T16:49:28.445Z,60.50
2023-05-21T16:51:55.508Z,60.40
2023-05-21T16:54:22.650Z,60.30
2023-05-21T16:56:49.731Z,60.40
2023-05-21T16:59:16.894Z,60.30
2023-05-21T17:01:44.044Z,60.40
2023-05-21T17:04:11.192Z,60.50
2023-05-21T17:06:38.182Z,60.50
2023-05-21T17:09:05.204Z,60.50
2023-05-21T17:11:32.317Z,60.40
2023-05-21T17:13:59.481Z,60.50
2023-05-21T17:16:26.793Z,60.60
2023-05-21T17:18:53.863Z,60.60
2023-05-21T17:21:20.859Z,60.60
2023-05-21T17:23:47.854Z,60.50
2023-05-21T17:26:15.154Z,60.50
2023-05-21T17:28:43.067Z,60.50
2023-05-21T17:31:10.257Z,60.60
2023-05-21T17:33:37.984Z,60.60
2023-05-21T17:36:05.344Z,60.60
2023-05-21T17:38:32.493Z,60.70
2023-05-21T17:40:59.596Z,60.60
2023-05-21T17:43:31.727Z,60.60
2023-05-21T17:45:58.725Z,60.60
2023-05-21T17:48:26.074Z,60.60
2023-05-21T17:50:53.760Z,60.70
2023-05-21T17:53:21.302Z,60.70
2023-05-21T17:55:48.470Z,60.70
2023-05-21T17:58:15.659Z,60.70
2023-05-21T18:00:42.830Z,60.70
2023-05-21T18:03:10.027Z,60.70
2023-05-21T18:05:37.391Z,60.80
2023-05-21T18:08:04.866Z,60.70
2023-05-21T18:10:32.010Z,60.90
2023-05-21T18:12:59.289Z,60.80
2023-05-21T18:15:26.306Z,60.90
2023-05-21T18:17:53.375Z,60.90
2023-05-21T18:20:20.405Z,60.90
2023-05-21T18:22:47.495Z,61.00
2023-05-21T18:25:14.568Z,61.00
2023-05-21T18:27:41.897Z,61.00
2023-05-21T18:30:09.652Z,61.10
2023-05-21T18:32:39.682Z,61.10
2023-05-21T18:35:11.478Z,61.10
2023-05-21T18:37:42.090Z,61.20
2023-05-21T18:40:10.666Z,62.00
2023-05-21T18:42:38.313Z,61.20
2023-05-21T18:45:10.192Z,61.20
2023-05-21T18:47:39.176Z,61.10
2023-05-21T18:50:14.240Z,61.30
2023-05-21T18:52:41.965Z,61.20
2023-05-21T18:55:09.577Z,61.30
2023-05-21T18:57:38.057Z,61.40
2023-05-21T19:00:09.554Z,61.40
2023-05-21T19:02:37.351Z,61.40
2023-05-21T19:05:05.105Z,61.40
2023-05-21T19:07:32.239Z,61.40
2023-05-21T19:10:00.301Z,61.40
2023-05-21T19:12:29.286Z,61.40
2023-05-21T19:14:56.451Z,61.50
2023-05-21T19:17:23.996Z,61.50
2023-05-21T19:19:55.729Z,61.50
2023-05-21T19:22:27.047Z,61.50
2023-05-21T19:24:54.773Z,61.50
2023-05-21T19:27:22.140Z,61.50
2023-05-21T19:29:50.089Z,61.50
2023-05-21T19:32:17.235Z,61.50
2023-05-21T19:34:44.198Z,61.50
2023-05-21T19:37:11.405Z,61.50
2023-05-21T19:39:43.293Z,61.60
2023-05-21T19:42:10.917Z,61.50
2023-05-21T19:44:40.973Z,61.70
2023-05-21T19:47:08.656Z,61.50
2023-05-21T19:49:35.834Z,61.50
2023-05-21T19:52:02.909Z,61.60
2023-05-21T19:54:29.955Z,61.60
2023-05-21T19:56:57.684Z,61.60
2023-05-21T19:59:24.819Z,61.60
2023-05-21T20:01:51.754Z,61.70
2023-05-21T20:04:18.830Z,61.70
2023-05-21T20:06:45.963Z,61.70
2023-05-21T20:09:13.669Z,61.80
2023-05-21T20:11:42.229Z,61.80
2023-05-21T20:14:09.450Z,61.70
2023-05-21T20:16:37.212Z,61.80
2023-05-21T20:19:04.549Z,61.80
2023-05-21T20:21:31.830Z,61.70
2023-05-21T20:23:58.945Z,61.80
2023-05-21T20:26:26.374Z,61.80
2023-05-21T20:28:53.923Z,61.90
2023-05-21T20:31:21.745Z,61.90
2023-05-21T20:33:50.794Z,61.80
2023-05-21T20:36:18.436Z,61.90
2023-05-21T20:38:45.622Z,61.90
2023-05-21T20:41:13.710Z,61.80
2023-05-21T20:43:40.803Z,62.80
2023-05-21T20:46:08.020Z,61.90
2023-05-21T20:48:35.550Z,61.90
2023-05-21T20:51:06.142Z,61.90
2023-05-21T20:53:33.695Z,61.90
2023-05-21T20:56:01.663Z,62.10
2023-05-21T20:58:28.873Z,61.90
2023-05-21T21:00:55.841Z,62.10
2023-05-21T21:03:22.991Z,62.00
2023-05-21T21:05:50.667Z,62.00
2023-05-21T21:08:17.693Z,62.00
2023-05-21T21:10:46.881Z,62.00
2023-05-21T21:13:14.592Z,61.90
2023-05-21T21:15:43.606Z,61.90
2023-05-21T21:18:12.470Z,63.00
2023-05-21T21:20:41.342Z,62.00
2023-05-21T21:23:09.017Z,62.00
2023-05-21T21:25:36.419Z,62.00
2023-05-21T21:28:03.666Z,62.00
2023-05-21T21:30:31.109Z,62.10
2023-05-21T21:32:58.168Z,62.20
2023-05-21T21:35:25.392Z,62.20
2023-05-21T21:37:52.384Z,62.10
2023-05-21T21:40:19.443Z,62.30
2023-05-21T21:42:46.580Z,62.30
2023-05-21T21:45:13.608Z,62.30
2023-05-21T21:47:41.027Z,62.30
2023-05-21T21:50:08.745Z,62.30
2023-05-21T21:52:39.909Z,62.30
2023-05-21T21:55:09.745Z,62.30
2023-05-21T21:57:38.833Z,62.40
2023-05-21T22:00:11.674Z,62.40
2023-05-21T22:02:40.184Z,62.50
2023-05-21T22:05:08.699Z,62.50
2023-05-21T22:07:38.557Z,62.60
2023-05-21T22:10:06.509Z,62.50
2023-05-21T22:12:33.953Z,62.60
2023-05-21T22:15:05.280Z,62.60
2023-05-21T22:17:32.754Z,62.60
2023-05-21T22:20:00.967Z,62.60
2023-05-21T22:22:28.293Z,62.60
2023-05-21T22:24:55.380Z,62.60
2023-05-21T22:27:22.338Z,62.60
2023-05-21T22:29:49.272Z,62.70
2023-05-21T22:32:16.376Z,62.70
2023-05-21T22:34:43.444Z,62.80
2023-05-21T22:37:11.037Z,62.80
2023-05-21T22:39:38.150Z,62.90
2023-05-21T22:42:05.863Z,62.80
2023-05-21T22:44:32.912Z,62.80
2023-05-21T22:47:00.263Z,62.90
2023-05-21T22:49:27.577Z,63.90
2023-05-21T22:51:54.585Z,62.90
2023-05-21T22:54:21.789Z,62.90
2023-05-21T22:56:49.786Z,63.00
2023-05-21T22:59:16.758Z,63.00
2023-05-21T23:01:43.873Z,62.90
2023-05-21T23:04:10.940Z,62.90
2023-05-21T23:06:38.097Z,63.00
2023-05-21T23:09:05.157Z,63.00
2023-05-21T23:11:32.376Z,63.00
2023-05-21T23:13:59.387Z,63.00
2023-05-21T23:16:26.883Z,63.00
2023-05-21T23:18:54.483Z,63.10
2023-05-21T23:21:21.877Z,63.00
2023-05-21T23:23:49.123Z,63.00
2023-05-21T23:26:16.620Z,63.00
2023-05-21T23:28:44.216Z,63.00
2023-05-21T23:31:11.489Z,63.00
2023-05-21T23:33:38.567Z,63.10
2023-05-21T23:36:06.121Z,63.10
2023-05-21T23:38:33.205Z,63.10
2023-05-21T23:41:00.326Z,63.20
2023-05-21T23:43:27.345Z,63.20
2023-05-21T23:45:54.556Z,63.20
2023-05-21T23:48:21.633Z,63.20
2023-05-21T23:50:48.900Z,63.20
2023-05-21T23:53:16.000Z,63.30
2023-05-21T23:55:43.103Z,63.40
2023-05-21T23:58:10.607Z,63.30
